Time;durP1;ratioP1;P1;durP2;ratioP2;P2;SDS_P1;SDS_P2;PMS_P1;PMS_P2;Temp;Humidity;BMP_temperature;BMP_pressure;BME280_temperature;BME280_humidity;BME280_pressure;Samples;Min_cycle;Max_cycle;Signal;HPM_P1;HPM_P2
2023/12/07 00:02:14;;;;;;;14.43;6.90;;;;;;;;;;5110218;28;20052;-71
2023/12/07 00:04:41;;;;;;;12.52;6.43;;;;;;;;;;5091423;28;20411;-72
2023/12/07 00:07:08;;;;;;;12.50;6.32;;;;;;;;;;5109947;28;20127;-72
2023/12/07 00:09:35;;;;;;;15.32;7.15;;;;;;;;;;5109426;28;20047;-71
2023/12/07 00:12:01;;;;;;;16.95;6.85;;;;;;;;;;5109782;28;20051;-72
2023/12/07 00:14:28;;;;;;;12.07;6.43;;;;;;;;;;5109531;28;20040;-72
2023/12/07 00:16:55;;;;;;;11.70;5.93;;;;;;;;;;5109086;28;20040;-72
2023/12/07 00:19:21;;;;;;;12.27;6.90;;;;;;;;;;5112413;28;20048;-72
2023/12/07 00:21:48;;;;;;;12.93;6.78;;;;;;;;;;5120101;27;20065;-72
2023/12/07 00:24:14;;;;;;;15.13;6.95;;;;;;;;;;5120328;27;20063;-72
2023/12/07 00:26:41;;;;;;;13.02;7.28;;;;;;;;;;5118706;27;20438;-72
2023/12/07 00:29:08;;;;;;;17.02;7.40;;;;;;;;;;5121083;27;20054;-71
2023/12/07 00:31:34;;;;;;;15.93;7.03;;;;;;;;;;5120455;27;20044;-72
2023/12/07 00:34:01;;;;;;;12.88;6.15;;;;;;;;;;5119127;27;20066;-72
2023/12/07 00:36:28;;;;;;;17.02;7.53;;;;;;;;;;5120603;27;20522;-72
2023/12/07 00:38:55;;;;;;;12.30;6.05;;;;;;;;;;5120083;27;20085;-71
2023/12/07 00:41:22;;;;;;;12.85;6.35;;;;;;;;;;5118648;27;20446;-71
2023/12/07 00:43:48;;;;;;;10.50;5.43;;;;;;;;;;5102430;27;20608;-71
2023/12/07 00:46:15;;;;;;;11.60;5.55;;;;;;;;;;5110101;28;20048;-72
2023/12/07 00:48:42;;;;;;;11.38;5.65;;;;;;;;;;5110525;28;20058;-72
2023/12/07 00:51:09;;;;;;;11.07;5.93;;;;;;;;;;5109374;28;20494;-72
2023/12/07 00:53:36;;;;;;;14.88;6.18;;;;;;;;;;5109950;28;20051;-72
2023/12/07 00:56:04;;;;;;;13.82;6.00;;;;;;;;;;5109980;28;20040;-72
2023/12/07 00:58:30;;;;;;;12.27;5.60;;;;;;;;;;5109943;28;20044;-71
2023/12/07 01:00:57;;;;;;;11.40;5.30;;;;;;;;;;5109451;28;20552;-71
2023/12/07 01:03:24;;;;;;;12.45;5.45;;;;;;;;;;5109967;28;20083;-71
2023/12/07 01:05:51;;;;;;;10.75;5.53;;;;;;;;;;5109409;28;20783;-72
2023/12/07 01:08:17;;;;;;;11.55;5.65;;;;;;;;;;5109685;28;20043;-72
2023/12/07 01:10:44;;;;;;;14.27;5.97;;;;;;;;;;5109286;28;20086;-71
2023/12/07 01:13:11;;;;;;;12.95;6.38;;;;;;;;;;5110103;28;20062;-71
2023/12/07 01:15:38;;;;;;;13.07;5.75;;;;;;;;;;5109398;28;20050;-72
2023/12/07 01:18:04;;;;;;;13.15;5.63;;;;;;;;;;5109449;28;20040;-72
2023/12/07 01:20:31;;;;;;;11.43;5.70;;;;;;;;;;5109817;28;20053;-72
2023/12/07 01:22:58;;;;;;;9.50;5.13;;;;;;;;;;5109341;28;20057;-72
2023/12/07 01:25:25;;;;;;;12.63;5.68;;;;;;;;;;5109310;28;20073;-71
2023/12/07 01:27:52;;;;;;;12.70;5.90;;;;;;;;;;5109616;28;20040;-72
2023/12/07 01:30:18;;;;;;;15.93;6.55;;;;;;;;;;5109491;28;20078;-72
2023/12/07 01:32:45;;;;;;;11.60;5.05;;;;;;;;;;5109455;28;20054;-72
2023/12/07 01:35:12;;;;;;;12.18;5.13;;;;;;;;;;5109279;28;20080;-72
2023/12/07 01:37:39;;;;;;;10.25;5.13;;;;;;;;;;5108910;28;20051;-72
2023/12/07 01:40:09;;;;;;;10.05;5.72;;;;;;;;;;5109109;28;20062;-72
2023/12/07 01:42:37;;;;;;;10.57;5.53;;;;;;;;;;5108901;28;20043;-72
2023/12/07 01:45:05;;;;;;;11.07;5.70;;;;;;;;;;5109253;28;20059;-72
2023/12/07 01:47:35;;;;;;;10.70;5.40;;;;;;;;;;5108886;28;20047;-71
2023/12/07 01:50:04;;;;;;;11.90;5.30;;;;;;;;;;5109247;28;20112;-72
2023/12/07 01:52:31;;;;;;;10.18;5.53;;;;;;;;;;5108738;28;20408;-71
2023/12/07 01:54:58;;;;;;;9.13;4.95;;;;;;;;;;5108513;28;20537;-71
2023/12/07 01:57:26;;;;;;;10.35;5.60;;;;;;;;;;5108679;28;20054;-72
2023/12/07 01:59:53;;;;;;;12.20;5.53;;;;;;;;;;5109106;28;20043;-72
2023/12/07 02:02:20;;;;;;;14.13;5.90;;;;;;;;;;5108568;28;20573;-70
2023/12/07 02:04:47;;;;;;;12.27;5.38;;;;;;;;;;5109300;28;20043;-71
2023/12/07 02:07:14;;;;;;;11.48;5.57;;;;;;;;;;5108788;28;20109;-71
2023/12/07 02:09:41;;;;;;;17.73;6.60;;;;;;;;;;5108766;28;20055;-71
2023/12/07 02:12:08;;;;;;;12.68;5.40;;;;;;;;;;5108434;28;20070;-72
2023/12/07 02:14:35;;;;;;;9.57;5.07;;;;;;;;;;5108772;28;20058;-71
2023/12/07 02:17:13;;;;;;;13.35;5.65;;;;;;;;;;5108793;28;20048;-71
2023/12/07 02:19:51;;;;;;;9.82;4.78;;;;;;;;;;5108874;28;20137;-71
2023/12/07 02:22:27;;;;;;;9.13;4.47;;;;;;;;;;5108566;28;20060;-71
2023/12/07 02:25:09;;;;;;;9.20;5.07;;;;;;;;;;5108444;28;20049;-71
2023/12/07 02:27:37;;;;;;;9.40;5.25;;;;;;;;;;5108212;28;20079;-72
2023/12/07 02:30:05;;;;;;;11.18;5.15;;;;;;;;;;5108707;28;20063;-72
2023/12/07 02:32:32;;;;;;;10.68;5.10;;;;;;;;;;5108272;28;20040;-72
2023/12/07 02:35:00;;;;;;;9.45;5.15;;;;;;;;;;5108917;28;20043;-72
2023/12/07 02:37:32;;;;;;;13.13;5.68;;;;;;;;;;5108542;28;20105;-71
2023/12/07 02:40:00;;;;;;;9.80;4.85;;;;;;;;;;5108596;28;20126;-72
2023/12/07 02:42:27;;;;;;;11.25;5.28;;;;;;;;;;5108715;28;20047;-71
2023/12/07 02:44:54;;;;;;;11.98;5.38;;;;;;;;;;5108365;28;20097;-72
2023/12/07 02:47:21;;;;;;;11.82;5.43;;;;;;;;;;5108198;28;20054;-72
2023/12/07 02:49:48;;;;;;;9.70;5.22;;;;;;;;;;5108258;28;20415;-72
2023/12/07 02:52:15;;;;;;;9.38;4.95;;;;;;;;;;5108241;28;20184;-71
2023/12/07 02:54:42;;;;;;;11.10;4.82;;;;;;;;;;5108485;28;20054;-72
2023/12/07 02:57:08;;;;;;;8.85;4.72;;;;;;;;;;5108297;28;20044;-72
2023/12/07 02:59:35;;;;;;;10.43;5.07;;;;;;;;;;5108424;28;20450;-72
2023/12/07 03:02:02;;;;;;;8.88;4.55;;;;;;;;;;5108425;28;20048;-72
2023/12/07 03:04:29;;;;;;;10.82;5.22;;;;;;;;;;5108591;28;20130;-71
2023/12/07 03:06:55;;;;;;;10.98;5.43;;;;;;;;;;5108182;28;20052;-72
2023/12/07 03:09:22;;;;;;;11.02;5.07;;;;;;;;;;5107791;28;20134;-72
2023/12/07 03:11:49;;;;;;;8.93;5.35;;;;;;;;;;5108139;28;20050;-71
2023/12/07 03:14:15;;;;;;;11.45;5.55;;;;;;;;;;5108887;28;20491;-72
2023/12/07 03:16:42;;;;;;;12.35;5.93;;;;;;;;;;5111964;28;20070;-72
2023/12/07 03:19:12;;;;;;;9.82;4.68;;;;;;;;;;5111753;28;20044;-72
2023/12/07 03:21:39;;;;;;;11.45;4.65;;;;;;;;;;5111736;28;20086;-71
2023/12/07 03:24:10;;;;;;;11.73;4.90;;;;;;;;;;5111614;28;20070;-71
2023/12/07 03:26:37;;;;;;;10.50;4.97;;;;;;;;;;5111744;28;20059;-72
2023/12/07 03:29:04;;;;;;;8.15;4.25;;;;;;;;;;5111826;28;20039;-73
2023/12/07 03:31:31;;;;;;;9.05;4.78;;;;;;;;;;5111702;28;20496;-72
2023/12/07 03:33:59;;;;;;;10.70;4.93;;;;;;;;;;5111733;28;20047;-72
2023/12/07 03:36:26;;;;;;;9.98;4.90;;;;;;;;;;5111470;28;20530;-72
2023/12/07 03:38:53;;;;;;;8.82;4.72;;;;;;;;;;5110990;28;20050;-71
2023/12/07 03:41:20;;;;;;;11.23;5.07;;;;;;;;;;5111768;28;20043;-72
2023/12/07 03:43:46;;;;;;;11.85;4.80;;;;;;;;;;5111571;28;20048;-72
2023/12/07 03:46:13;;;;;;;11.07;4.00;;;;;;;;;;5111767;28;20115;-73
2023/12/07 03:48:40;;;;;;;9.85;4.15;;;;;;;;;;5111168;28;20040;-72
2023/12/07 03:51:07;;;;;;;10.13;4.47;;;;;;;;;;5111685;28;20053;-72
2023/12/07 03:53:33;;;;;;;12.00;4.68;;;;;;;;;;5110831;28;20051;-72
2023/12/07 03:56:00;;;;;;;8.65;4.28;;;;;;;;;;5111382;28;20044;-73
2023/12/07 03:58:27;;;;;;;8.18;3.70;;;;;;;;;;5111051;28;20051;-73
2023/12/07 04:00:53;;;;;;;10.77;4.53;;;;;;;;;;5111162;28;20478;-73
2023/12/07 04:03:20;;;;;;;8.70;4.40;;;;;;;;;;5111157;28;20122;-73
2023/12/07 04:05:46;;;;;;;7.30;3.85;;;;;;;;;;5111133;28;20597;-72
2023/12/07 04:08:14;;;;;;;8.68;4.00;;;;;;;;;;5110989;28;20048;-72
2023/12/07 04:10:41;;;;;;;9.32;4.30;;;;;;;;;;5110585;28;20047;-72
2023/12/07 04:13:07;;;;;;;10.70;4.50;;;;;;;;;;5110557;28;20094;-73
2023/12/07 04:15:34;;;;;;;11.38;4.90;;;;;;;;;;5110930;28;20048;-73
2023/12/07 04:18:01;;;;;;;9.13;4.72;;;;;;;;;;5110447;28;20051;-73
2023/12/07 04:20:28;;;;;;;9.57;4.55;;;;;;;;;;5110677;28;20047;-73
2023/12/07 04:22:55;;;;;;;9.20;4.75;;;;;;;;;;5110495;28;20058;-72
2023/12/07 04:25:22;;;;;;;10.50;4.45;;;;;;;;;;5109999;28;20047;-72
2023/12/07 04:27:49;;;;;;;8.70;4.32;;;;;;;;;;5109589;28;20043;-71
2023/12/07 04:30:16;;;;;;;8.32;4.35;;;;;;;;;;5110638;28;20605;-72
2023/12/07 04:32:42;;;;;;;9.07;4.20;;;;;;;;;;5110212;28;20507;-72
2023/12/07 04:35:09;;;;;;;11.63;4.30;;;;;;;;;;5110427;28;20048;-72
2023/12/07 04:37:36;;;;;;;8.82;4.10;;;;;;;;;;5110414;28;20138;-72
2023/12/07 04:40:04;;;;;;;7.47;3.92;;;;;;;;;;5113859;27;20504;-72
2023/12/07 04:42:31;;;;;;;9.25;4.38;;;;;;;;;;5119298;27;20055;-72
2023/12/07 04:44:58;;;;;;;10.07;4.03;;;;;;;;;;5121262;27;20054;-72
2023/12/07 04:47:25;;;;;;;10.05;4.28;;;;;;;;;;5119949;27;20074;-72
2023/12/07 04:49:52;;;;;;;8.88;3.97;;;;;;;;;;5119121;27;20043;-72
2023/12/07 04:52:19;;;;;;;9.25;3.97;;;;;;;;;;5118769;27;20093;-72
2023/12/07 04:54:46;;;;;;;7.95;4.07;;;;;;;;;;5119616;27;20047;-72
2023/12/07 04:57:13;;;;;;;10.85;5.10;;;;;;;;;;5120701;27;20044;-72
2023/12/07 04:59:39;;;;;;;9.55;3.72;;;;;;;;;;5109454;28;20122;-72
2023/12/07 05:02:06;;;;;;;10.27;4.47;;;;;;;;;;5109529;28;20040;-72
2023/12/07 05:04:33;;;;;;;7.78;3.47;;;;;;;;;;5109370;28;20071;-72
2023/12/07 05:07:01;;;;;;;8.23;4.25;;;;;;;;;;5117767;27;20454;-72
2023/12/07 05:09:30;;;;;;;10.77;4.32;;;;;;;;;;5119107;27;20134;-71
2023/12/07 05:11:58;;;;;;;8.23;3.92;;;;;;;;;;5118259;27;20525;-72
2023/12/07 05:14:25;;;;;;;9.93;4.32;;;;;;;;;;5119717;27;20050;-72
2023/12/07 05:16:52;;;;;;;6.53;3.58;;;;;;;;;;5120296;27;20087;-72
2023/12/07 05:19:20;;;;;;;6.47;3.15;;;;;;;;;;5118241;27;20043;-72
2023/12/07 05:21:47;;;;;;;7.78;3.53;;;;;;;;;;5116257;27;20060;-71
2023/12/07 05:24:15;;;;;;;6.57;3.10;;;;;;;;;;5109074;28;20043;-72
2023/12/07 05:26:43;;;;;;;4.63;2.63;;;;;;;;;;5109694;28;20047;-72
2023/12/07 05:29:11;;;;;;;6.80;2.53;;;;;;;;;;5109148;28;20059;-71
2023/12/07 05:31:37;;;;;;;8.23;2.40;;;;;;;;;;5109403;28;20055;-71
2023/12/07 05:34:05;;;;;;;5.13;2.30;;;;;;;;;;5109365;28;20096;-72
2023/12/07 05:36:32;;;;;;;3.95;2.33;;;;;;;;;;5109651;28;20086;-72
2023/12/07 05:38:59;;;;;;;4.93;2.22;;;;;;;;;;5108231;28;20050;-71
2023/12/07 05:41:25;;;;;;;7.32;2.30;;;;;;;;;;5109501;28;20112;-71
2023/12/07 05:43:52;;;;;;;8.18;2.60;;;;;;;;;;5108904;28;20122;-72
2023/12/07 05:46:19;;;;;;;4.10;2.22;;;;;;;;;;5109166;28;20109;-72
2023/12/07 05:48:46;;;;;;;6.18;2.22;;;;;;;;;;5109041;28;20051;-72
2023/12/07 05:51:17;;;;;;;6.35;2.83;;;;;;;;;;5109177;28;20051;-72
2023/12/07 05:53:44;;;;;;;6.13;2.55;;;;;;;;;;5108919;28;20130;-71
2023/12/07 05:56:13;;;;;;;4.85;2.20;;;;;;;;;;5109298;28;20062;-71
2023/12/07 05:58:40;;;;;;;4.90;2.17;;;;;;;;;;5108580;28;20052;-72
2023/12/07 06:01:07;;;;;;;4.15;1.90;;;;;;;;;;5108841;28;20696;-72
2023/12/07 06:03:35;;;;;;;6.43;2.70;;;;;;;;;;5108905;28;20449;-71
2023/12/07 06:06:02;;;;;;;5.05;2.13;;;;;;;;;;5108734;28;20047;-72
2023/12/07 06:08:28;;;;;;;5.35;1.95;;;;;;;;;;5108623;28;20055;-71
2023/12/07 06:10:56;;;;;;;3.03;1.65;;;;;;;;;;5108581;28;20734;-72
2023/12/07 06:13:24;;;;;;;5.88;2.00;;;;;;;;;;5109150;28;20043;-71
2023/12/07 06:15:50;;;;;;;5.82;2.28;;;;;;;;;;5108640;28;20043;-72
2023/12/07 06:18:17;;;;;;;4.40;2.05;;;;;;;;;;5108798;28;20040;-72
2023/12/07 06:20:47;;;;;;;5.07;2.23;;;;;;;;;;5108718;28;20056;-72
2023/12/07 06:23:14;;;;;;;5.32;2.10;;;;;;;;;;5108507;28;20300;-71
2023/12/07 06:25:40;;;;;;;3.97;1.60;;;;;;;;;;5108200;28;20043;-72
2023/12/07 06:28:07;;;;;;;5.15;1.85;;;;;;;;;;5108938;28;20051;-72
2023/12/07 06:30:34;;;;;;;6.55;2.08;;;;;;;;;;5108785;28;20154;-72
2023/12/07 06:33:01;;;;;;;6.30;2.15;;;;;;;;;;5108635;28;20412;-72
2023/12/07 06:35:28;;;;;;;6.45;3.05;;;;;;;;;;5108109;28;20086;-72
2023/12/07 06:37:55;;;;;;;7.07;2.53;;;;;;;;;;5108591;28;20185;-71
2023/12/07 06:40:21;;;;;;;6.95;3.13;;;;;;;;;;5108156;28;20059;-71
2023/12/07 06:42:48;;;;;;;5.30;2.30;;;;;;;;;;5108586;28;20539;-72
2023/12/07 06:45:15;;;;;;;5.82;3.10;;;;;;;;;;5108524;28;20048;-72
2023/12/07 06:47:42;;;;;;;7.28;2.88;;;;;;;;;;5108789;28;20132;-71
2023/12/07 06:50:09;;;;;;;7.07;3.17;;;;;;;;;;5110050;28;20061;-72
2023/12/07 06:52:37;;;;;;;8.93;4.10;;;;;;;;;;5112501;28;20047;-72
2023/12/07 06:55:04;;;;;;;8.82;3.30;;;;;;;;;;5112012;28;20043;-71
2023/12/07 06:57:32;;;;;;;8.05;3.60;;;;;;;;;;5117898;27;20131;-72
2023/12/07 06:59:58;;;;;;;5.82;2.55;;;;;;;;;;5122035;27;20036;-72
2023/12/07 07:02:25;;;;;;;11.70;3.47;;;;;;;;;;5121320;27;20044;-72
2023/12/07 07:04:52;;;;;;;6.78;3.35;;;;;;;;;;5122667;27;20054;-72
2023/12/07 07:07:19;;;;;;;7.15;3.30;;;;;;;;;;5122494;27;20040;-72
2023/12/07 07:09:46;;;;;;;8.40;3.42;;;;;;;;;;5120425;27;20124;-73
2023/12/07 07:12:13;;;;;;;5.95;2.58;;;;;;;;;;5122279;27;20522;-72
2023/12/07 07:14:40;;;;;;;5.18;2.30;;;;;;;;;;5122080;27;20090;-72
2023/12/07 07:17:06;;;;;;;3.03;1.88;;;;;;;;;;5120584;27;20521;-72
2023/12/07 07:19:33;;;;;;;5.55;2.17;;;;;;;;;;5122587;27;20047;-72
2023/12/07 07:22:00;;;;;;;3.40;1.70;;;;;;;;;;5122078;27;20135;-72
2023/12/07 07:24:27;;;;;;;5.28;1.90;;;;;;;;;;5119890;27;20123;-71
2023/12/07 07:26:54;;;;;;;3.60;1.65;;;;;;;;;;5123523;27;20232;-72
2023/12/07 07:29:21;;;;;;;2.50;1.45;;;;;;;;;;5132295;27;20134;-72
2023/12/07 07:31:47;;;;;;;3.72;1.38;;;;;;;;;;5132010;27;20047;-72
2023/12/07 07:34:14;;;;;;;4.40;1.65;;;;;;;;;;5132490;27;20050;-71
2023/12/07 07:36:41;;;;;;;7.75;2.30;;;;;;;;;;5131880;27;20482;-73
2023/12/07 07:39:08;;;;;;;3.67;1.65;;;;;;;;;;5131636;27;20047;-73
2023/12/07 07:41:36;;;;;;;4.53;1.77;;;;;;;;;;5132161;27;20047;-72
2023/12/07 07:44:02;;;;;;;4.25;1.77;;;;;;;;;;5132313;27;20058;-72
2023/12/07 07:46:30;;;;;;;6.15;1.60;;;;;;;;;;5131696;27;20108;-73
2023/12/07 07:48:57;;;;;;;4.97;2.00;;;;;;;;;;5131966;27;20039;-72
2023/12/07 07:51:24;;;;;;;3.58;1.45;;;;;;;;;;5131701;27;20130;-72
2023/12/07 07:53:51;;;;;;;4.07;1.77;;;;;;;;;;5131845;27;20047;-72
2023/12/07 07:56:17;;;;;;;3.47;1.48;;;;;;;;;;5131687;27;20521;-72
2023/12/07 07:58:44;;;;;;;2.67;1.20;;;;;;;;;;5131873;27;20086;-71
2023/12/07 08:01:11;;;;;;;2.65;1.30;;;;;;;;;;5131349;27;20081;-72
2023/12/07 08:03:41;;;;;;;;;;;;;;;;;;5132265;27;20046;-72
2023/12/07 08:06:08;;;;;;;3.20;1.20;;;;;;;;;;5131276;27;19919;-72
2023/12/07 08:08:35;;;;;;;3.28;1.50;;;;;;;;;;5131501;27;20135;-72
2023/12/07 08:11:01;;;;;;;4.50;1.38;;;;;;;;;;5131076;27;20054;-73
2023/12/07 08:13:28;;;;;;;5.03;1.50;;;;;;;;;;5131777;27;20059;-72
2023/12/07 08:15:55;;;;;;;2.85;1.45;;;;;;;;;;5131477;27;20099;-72
2023/12/07 08:18:24;;;;;;;3.45;1.23;;;;;;;;;;5131847;27;20131;-72
2023/12/07 08:20:51;;;;;;;4.03;1.33;;;;;;;;;;5131123;27;20043;-72
2023/12/07 08:23:18;;;;;;;3.33;1.42;;;;;;;;;;5131054;27;20047;-72
2023/12/07 08:25:45;;;;;;;2.85;1.30;;;;;;;;;;5130478;27;20047;-72
2023/12/07 08:28:11;;;;;;;3.72;1.80;;;;;;;;;;5131314;27;20039;-72
2023/12/07 08:30:38;;;;;;;3.65;1.30;;;;;;;;;;5130717;27;20522;-72
2023/12/07 08:33:05;;;;;;;4.13;1.70;;;;;;;;;;5131439;27;20054;-72
2023/12/07 08:35:32;;;;;;;2.50;1.33;;;;;;;;;;5131136;27;20071;-72
2023/12/07 08:37:58;;;;;;;5.15;1.48;;;;;;;;;;5130989;27;20047;-72
2023/12/07 08:40:25;;;;;;;2.70;1.40;;;;;;;;;;5130022;27;20054;-73
2023/12/07 08:42:54;;;;;;;5.93;1.65;;;;;;;;;;5130767;27;20043;-72
2023/12/07 08:45:21;;;;;;;5.45;1.63;;;;;;;;;;5130708;27;20434;-72
2023/12/07 08:47:48;;;;;;;5.93;1.83;;;;;;;;;;5130721;27;20495;-73
2023/12/07 08:50:14;;;;;;;3.17;1.33;;;;;;;;;;5130508;27;20051;-72
2023/12/07 08:52:44;;;;;;;3.20;1.40;;;;;;;;;;5130564;27;20051;-72
2023/12/07 08:55:22;;;;;;;4.47;1.60;;;;;;;;;;5130245;27;20047;-72
2023/12/07 08:57:48;;;;;;;3.80;1.40;;;;;;;;;;5130234;27;20065;-72
2023/12/07 09:00:23;;;;;;;2.05;1.25;;;;;;;;;;5130215;27;20518;-72
2023/12/07 09:02:51;;;;;;;4.00;1.20;;;;;;;;;;5130418;27;20620;-72
2023/12/07 09:05:18;;;;;;;2.90;1.40;;;;;;;;;;5130708;27;20103;-73
2023/12/07 09:07:45;;;;;;;1.85;1.13;;;;;;;;;;5130203;27;20114;-72
2023/12/07 09:10:13;;;;;;;4.15;1.52;;;;;;;;;;5129830;27;20495;-72
2023/12/07 09:12:40;;;;;;;2.25;1.15;;;;;;;;;;5129556;27;20505;-72
2023/12/07 09:15:09;;;;;;;3.55;1.20;;;;;;;;;;5130214;27;20434;-72
2023/12/07 09:17:38;;;;;;;5.55;1.13;;;;;;;;;;5129890;27;20047;-73
2023/12/07 09:20:14;;;;;;;2.22;1.00;;;;;;;;;;5130185;27;20051;-73
2023/12/07 09:22:45;;;;;;;3.08;1.25;;;;;;;;;;5129643;27;20062;-73
2023/12/07 09:25:13;;;;;;;2.78;1.42;;;;;;;;;;5130170;27;20100;-72
2023/12/07 09:27:40;;;;;;;4.53;1.80;;;;;;;;;;5129812;27;20108;-73
2023/12/07 09:30:10;;;;;;;3.28;1.40;;;;;;;;;;5129881;27;20050;-72
2023/12/07 09:32:39;;;;;;;2.47;1.20;;;;;;;;;;5129940;27;20055;-73
2023/12/07 09:35:07;;;;;;;3.13;1.35;;;;;;;;;;5129674;27;20049;-73
2023/12/07 09:37:34;;;;;;;2.28;1.23;;;;;;;;;;5129611;27;20049;-72
2023/12/07 09:40:04;;;;;;;2.20;1.10;;;;;;;;;;5129337;27;20043;-73
2023/12/07 09:42:31;;;;;;;2.15;1.10;;;;;;;;;;5129588;27;20051;-73
2023/12/07 09:45:04;;;;;;;2.28;1.10;;;;;;;;;;5130224;27;20199;-73
2023/12/07 09:47:34;;;;;;;3.88;1.10;;;;;;;;;;5129502;27;20039;-73
2023/12/07 09:50:05;;;;;;;2.25;0.90;;;;;;;;;;5129649;27;20047;-72
2023/12/07 09:52:32;;;;;;;2.00;1.10;;;;;;;;;;5129150;27;20494;-73
2023/12/07 09:55:01;;;;;;;2.20;1.10;;;;;;;;;;5129194;27;20490;-72
2023/12/07 09:57:28;;;;;;;2.15;1.08;;;;;;;;;;5129238;27;20039;-72
2023/12/07 09:59:57;;;;;;;2.95;1.10;;;;;;;;;;5129786;27;20047;-72
2023/12/07 10:02:25;;;;;;;2.03;0.90;;;;;;;;;;5129691;27;20054;-73
2023/12/07 10:05:18;;;;;;;4.90;1.20;;;;;;;;;;5129463;27;20043;-72
2023/12/07 10:07:48;;;;;;;3.42;1.10;;;;;;;;;;5124646;27;20046;-73
2023/12/07 10:10:16;;;;;;;3.83;1.50;;;;;;;;;;5129198;27;20039;-72
2023/12/07 10:12:54;;;;;;;2.55;1.27;;;;;;;;;;5129051;27;20109;-73
2023/12/07 10:15:22;;;;;;;1.52;1.02;;;;;;;;;;5129683;27;20063;-72
2023/12/07 10:17:51;;;;;;;4.93;1.40;;;;;;;;;;5129233;27;20058;-73
2023/12/07 10:20:23;;;;;;;3.20;1.30;;;;;;;;;;5129241;28;20047;-73
2023/12/07 10:23:07;;;;;;;3.88;1.25;;;;;;;;;;5129118;28;20085;-73
2023/12/07 10:25:42;;;;;;;4.25;1.10;;;;;;;;;;5133164;27;20054;-73
2023/12/07 10:28:12;;;;;;;2.45;1.33;;;;;;;;;;5133580;27;20100;-73
2023/12/07 10:30:41;;;;;;;4.50;1.30;;;;;;;;;;5133736;27;20046;-73
2023/12/07 10:33:10;;;;;;;2.28;1.10;;;;;;;;;;5133589;27;20047;-73
2023/12/07 10:35:40;;;;;;;2.75;1.02;;;;;;;;;;5133796;27;20050;-73
2023/12/07 10:38:08;;;;;;;3.55;1.20;;;;;;;;;;5131141;27;20043;-73
2023/12/07 10:40:35;;;;;;;2.97;0.95;;;;;;;;;;5123029;27;20455;-73
2023/12/07 10:43:05;;;;;;;3.25;1.10;;;;;;;;;;5121305;27;20078;-73
2023/12/07 10:45:34;;;;;;;2.60;1.10;;;;;;;;;;5121945;27;20122;-73
2023/12/07 10:48:06;;;;;;;2.03;0.90;;;;;;;;;;5121396;27;20096;-72
2023/12/07 10:50:45;;;;;;;2.95;1.20;;;;;;;;;;5121544;27;20058;-73
2023/12/07 10:53:40;;;;;;;6.03;1.45;;;;;;;;;;5122800;27;20047;-72
2023/12/07 10:56:12;;;;;;;4.65;1.30;;;;;;;;;;5112536;27;20046;-73
2023/12/07 10:58:40;;;;;;;2.05;1.00;;;;;;;;;;5123297;27;20059;-72
2023/12/07 11:01:08;;;;;;;2.53;1.15;;;;;;;;;;5121577;27;20526;-73
2023/12/07 11:03:36;;;;;;;2.25;0.90;;;;;;;;;;5120988;27;20039;-73
2023/12/07 11:06:05;;;;;;;2.05;0.98;;;;;;;;;;5121578;27;20043;-73
2023/12/07 11:08:49;;;;;;;1.50;0.90;;;;;;;;;;5123611;27;20047;-72
2023/12/07 11:11:30;;;;;;;1.58;1.13;;;;;;;;;;5132734;27;20077;-72
2023/12/07 11:14:00;;;;;;;1.73;0.90;;;;;;;;;;5132544;27;20051;-73
2023/12/07 11:16:31;;;;;;;2.23;0.90;;;;;;;;;;5132561;27;20146;-73
2023/12/07 11:19:01;;;;;;;1.95;1.02;;;;;;;;;;5132547;27;20285;-72
2023/12/07 11:21:28;;;;;;;1.67;1.00;;;;;;;;;;5132348;27;20099;-73
2023/12/07 11:23:55;;;;;;;1.90;0.98;;;;;;;;;;5131850;27;20490;-72
2023/12/07 11:26:26;;;;;;;2.72;0.93;;;;;;;;;;5132471;27;20047;-73
2023/12/07 11:28:55;;;;;;;2.22;1.00;;;;;;;;;;5132437;27;20058;-72
2023/12/07 11:31:21;;;;;;;2.72;1.17;;;;;;;;;;5132373;27;20054;-73
2023/12/07 11:33:48;;;;;;;2.42;1.00;;;;;;;;;;5132486;27;20047;-72
2023/12/07 11:36:15;;;;;;;3.03;1.13;;;;;;;;;;5131894;27;20485;-72
2023/12/07 11:39:06;;;;;;;2.22;1.10;;;;;;;;;;5131613;27;20048;-72
2023/12/07 11:41:45;;;;;;;2.63;1.20;;;;;;;;;;5132223;27;20043;-72
2023/12/07 11:44:12;;;;;;;2.25;1.15;;;;;;;;;;5132278;27;20051;-72
2023/12/07 11:46:38;;;;;;;2.17;1.05;;;;;;;;;;5132342;27;20043;-72
2023/12/07 11:49:10;;;;;;;3.42;1.20;;;;;;;;;;5131867;27;20184;-72
2023/12/07 11:51:53;;;;;;;2.53;1.10;;;;;;;;;;5131614;27;20043;-72
2023/12/07 11:54:22;;;;;;;2.50;1.30;;;;;;;;;;5131662;27;20134;-72
2023/12/07 11:56:56;;;;;;;2.03;1.13;;;;;;;;;;5132022;27;20039;-72
2023/12/07 11:59:25;;;;;;;2.40;1.00;;;;;;;;;;5131712;27;20105;-72
2023/12/07 12:02:02;;;;;;;1.85;0.93;;;;;;;;;;5131855;27;20130;-72
2023/12/07 12:04:29;;;;;;;2.30;1.20;;;;;;;;;;5131421;27;20047;-72
2023/12/07 12:06:56;;;;;;;3.95;1.25;;;;;;;;;;5131869;27;20074;-72
2023/12/07 12:09:26;;;;;;;1.80;0.80;;;;;;;;;;5131326;27;20043;-72
2023/12/07 12:12:00;;;;;;;3.30;0.90;;;;;;;;;;5131415;27;20079;-72
2023/12/07 12:14:28;;;;;;;2.40;1.10;;;;;;;;;;5131186;27;20491;-72
2023/12/07 12:16:56;;;;;;;2.70;1.20;;;;;;;;;;5131568;27;20047;-71
2023/12/07 12:19:24;;;;;;;2.10;1.00;;;;;;;;;;5131416;27;20047;-72
2023/12/07 12:22:01;;;;;;;1.42;1.00;;;;;;;;;;5127894;27;20754;-73
2023/12/07 12:24:33;;;;;;;4.15;1.08;;;;;;;;;;5120549;27;20048;-72
2023/12/07 12:27:01;;;;;;;3.00;0.88;;;;;;;;;;5119677;27;20047;-73
2023/12/07 12:29:28;;;;;;;1.92;0.90;;;;;;;;;;5120690;27;20035;-72
2023/12/07 12:32:02;;;;;;;1.35;0.75;;;;;;;;;;5104058;27;20085;-72
2023/12/07 12:34:29;;;;;;;1.90;0.77;;;;;;;;;;5120189;27;20047;-72
2023/12/07 12:36:56;;;;;;;1.35;0.80;;;;;;;;;;5119682;27;20044;-72
2023/12/07 12:39:29;;;;;;;2.10;0.75;;;;;;;;;;5120957;27;20070;-73
2023/12/07 12:42:00;;;;;;;2.45;0.90;;;;;;;;;;5121354;27;20051;-72
2023/12/07 12:44:27;;;;;;;3.15;0.82;;;;;;;;;;5119838;27;20119;-72
2023/12/07 12:47:05;;;;;;;2.15;1.10;;;;;;;;;;5117883;27;20051;-72
2023/12/07 12:49:36;;;;;;;1.67;0.90;;;;;;;;;;5120026;27;20039;-72
2023/12/07 12:52:04;;;;;;;3.47;1.00;;;;;;;;;;5115251;27;20430;-73
2023/12/07 12:54:32;;;;;;;2.90;0.90;;;;;;;;;;5109806;28;20126;-72
2023/12/07 12:56:59;;;;;;;2.13;1.00;;;;;;;;;;5110424;28;20647;-72
2023/12/07 12:59:26;;;;;;;2.70;0.98;;;;;;;;;;5110177;28;20131;-72
2023/12/07 13:01:53;;;;;;;2.53;0.90;;;;;;;;;;5110103;28;20050;-73
2023/12/07 13:04:20;;;;;;;1.95;1.13;;;;;;;;;;5110242;28;20450;-72
2023/12/07 13:06:48;;;;;;;2.05;1.00;;;;;;;;;;5110298;28;20051;-73
2023/12/07 13:09:16;;;;;;;1.15;0.80;;;;;;;;;;5109472;28;20044;-72
2023/12/07 13:11:43;;;;;;;1.67;0.90;;;;;;;;;;5110001;28;20528;-73
2023/12/07 13:14:10;;;;;;;3.42;0.82;;;;;;;;;;5109973;28;20050;-72
2023/12/07 13:16:37;;;;;;;3.08;0.93;;;;;;;;;;5110252;28;20104;-72
2023/12/07 13:19:04;;;;;;;1.60;0.80;;;;;;;;;;5109542;28;20048;-72
2023/12/07 13:21:31;;;;;;;2.50;1.13;;;;;;;;;;5109898;28;20074;-72
2023/12/07 13:23:58;;;;;;;2.05;0.80;;;;;;;;;;5108897;28;20511;-71
2023/12/07 13:26:28;;;;;;;1.92;0.80;;;;;;;;;;5109760;28;20047;-72
2023/12/07 13:28:55;;;;;;;3.20;1.10;;;;;;;;;;5109239;28;20588;-71
2023/12/07 13:31:22;;;;;;;2.25;1.10;;;;;;;;;;5091388;28;20071;-72
2023/12/07 13:33:50;;;;;;;1.40;0.90;;;;;;;;;;5109296;28;20070;-72
2023/12/07 13:36:25;;;;;;;2.53;1.00;;;;;;;;;;5109637;28;20116;-72
2023/12/07 13:38:52;;;;;;;2.85;1.13;;;;;;;;;;5108793;28;20088;-72
2023/12/07 13:41:19;;;;;;;3.05;1.00;;;;;;;;;;5111220;28;20040;-72
2023/12/07 13:43:48;;;;;;;3.85;1.17;;;;;;;;;;5108979;28;20092;-72
2023/12/07 13:46:17;;;;;;;2.15;0.70;;;;;;;;;;5109106;28;20508;-73
2023/12/07 13:48:43;;;;;;;2.58;1.00;;;;;;;;;;5090895;28;20406;-72
2023/12/07 13:51:10;;;;;;;4.20;1.15;;;;;;;;;;5109470;28;20212;-72
2023/12/07 13:53:37;;;;;;;1.70;0.90;;;;;;;;;;5108540;28;20043;-72
2023/12/07 13:56:05;;;;;;;1.63;0.93;;;;;;;;;;5108976;28;20043;-72
2023/12/07 13:58:32;;;;;;;1.67;1.10;;;;;;;;;;5108735;28;20516;-72
2023/12/07 14:00:58;;;;;;;3.40;1.33;;;;;;;;;;5108622;28;20127;-73
2023/12/07 14:03:25;;;;;;;2.63;0.93;;;;;;;;;;5108641;28;20052;-72
2023/12/07 14:05:52;;;;;;;2.25;0.93;;;;;;;;;;5108858;28;20043;-72
2023/12/07 14:08:19;;;;;;;2.10;0.98;;;;;;;;;;5109327;28;20117;-73
2023/12/07 14:10:48;;;;;;;3.15;1.08;;;;;;;;;;5108579;28;20051;-72
2023/12/07 14:13:17;;;;;;;5.00;1.13;;;;;;;;;;5108443;28;20047;-72
2023/12/07 14:15:44;;;;;;;5.22;1.42;;;;;;;;;;5108330;28;20049;-72
2023/12/07 14:18:11;;;;;;;5.88;1.20;;;;;;;;;;5108935;28;20052;-72
2023/12/07 14:20:41;;;;;;;2.92;1.17;;;;;;;;;;5108486;28;20521;-72
2023/12/07 14:23:28;;;;;;;2.13;1.10;;;;;;;;;;5108307;28;20067;-72
2023/12/07 14:25:58;;;;;;;2.47;0.90;;;;;;;;;;5108479;28;20130;-72
2023/12/07 14:28:30;;;;;;;4.78;1.02;;;;;;;;;;5108671;28;20040;-72
2023/12/07 14:30:59;;;;;;;2.80;1.10;;;;;;;;;;5108406;28;20083;-72
2023/12/07 14:33:26;;;;;;;4.75;1.20;;;;;;;;;;5108357;28;20088;-72
2023/12/07 14:35:53;;;;;;;2.30;1.05;;;;;;;;;;5090253;28;20678;-72
2023/12/07 14:38:20;;;;;;;3.17;1.13;;;;;;;;;;5107774;28;20051;-72
2023/12/07 14:40:49;;;;;;;1.40;0.88;;;;;;;;;;5108375;28;20465;-72
2023/12/07 14:43:15;;;;;;;2.70;1.15;;;;;;;;;;5108859;28;20039;-72
2023/12/07 14:45:43;;;;;;;5.15;0.95;;;;;;;;;;5108605;28;20048;-72
2023/12/07 14:48:10;;;;;;;2.53;1.23;;;;;;;;;;5108527;28;20214;-72